createdAt,value
2018-01-04T00:00:55.305Z,89.30
2018-01-04T00:03:22.732Z,89.30
2018-01-04T00:05:50.195Z,89.40
2018-01-04T00:08:17.644Z,89.50
2018-01-04T00:10:45.111Z,89.50
2018-01-04T00:13:12.545Z,89.50
2018-01-04T00:15:39.995Z,89.50
2018-01-04T00:18:07.810Z,89.70
2018-01-04T00:20:35.246Z,89.60
2018-01-04T00:23:02.767Z,89.60
2018-01-04T00:25:30.230Z,89.60
2018-01-04T00:27:57.687Z,89.70
2018-01-04T00:30:25.147Z,90.00
2018-01-04T00:32:52.585Z,89.70
2018-01-04T00:35:21.551Z,89.80
2018-01-04T00:37:48.977Z,89.70
2018-01-04T00:40:17.532Z,89.80
2018-01-04T00:42:44.982Z,89.60
2018-01-04T00:45:12.429Z,89.70
2018-01-04T00:47:41.390Z,89.40
2018-01-04T00:50:09.609Z,89.30
2018-01-04T00:52:37.034Z,90.00
2018-01-04T00:55:04.480Z,89.30
2018-01-04T00:57:31.916Z,89.40
2018-01-04T00:59:59.385Z,89.30
2018-01-04T01:02:26.817Z,89.20
2018-01-04T01:04:54.265Z,89.30
2018-01-04T01:07:21.716Z,89.30
2018-01-04T01:09:49.152Z,89.20
2018-01-04T01:12:16.617Z,89.10
2018-01-04T01:14:44.815Z,89.30
2018-01-04T01:17:12.255Z,89.10
2018-01-04T01:19:39.718Z,89.30
2018-01-04T01:22:07.149Z,89.50
2018-01-04T01:24:34.623Z,89.80
2018-01-04T01:27:02.052Z,90.10
2018-01-04T01:29:29.493Z,90.10
2018-01-04T01:31:56.955Z,90.20
2018-01-04T01:34:24.404Z,90.30
2018-01-04T01:36:51.854Z,90.30
2018-01-04T01:39:20.803Z,90.50
2018-01-04T01:41:48.233Z,90.50
2018-01-04T01:44:15.698Z,90.60
2018-01-04T01:46:43.396Z,90.60
2018-01-04T01:49:15.647Z,90.60
2018-01-04T01:51:43.085Z,90.60
2018-01-04T01:54:13.550Z,90.60
2018-01-04T01:56:40.999Z,90.70
2018-01-04T01:59:08.553Z,90.60
2018-01-04T02:01:35.997Z,90.70
2018-01-04T02:04:03.469Z,90.70
2018-01-04T02:06:31.256Z,90.80
2018-01-04T02:08:58.745Z,91.10
2018-01-04T02:11:26.205Z,91.40
2018-01-04T02:13:53.841Z,91.60
2018-01-04T02:16:21.294Z,91.70
2018-01-04T02:19:00.530Z,91.70
2018-01-04T02:21:39.840Z,91.80
2018-01-04T02:24:20.547Z,91.80
2018-01-04T02:26:59.681Z,91.80
2018-01-04T02:29:39.011Z,91.80
2018-01-04T02:32:18.322Z,91.80
2018-01-04T02:34:58.344Z,91.70
2018-01-04T02:37:37.633Z,91.60
2018-01-04T02:40:16.921Z,91.80
2018-01-04T02:42:56.301Z,91.90
2018-01-04T02:45:47.479Z,92.20
2018-01-04T02:48:14.913Z,92.60
2018-01-04T02:50:42.344Z,93.20
2018-01-04T02:53:09.797Z,93.10
2018-01-04T02:55:37.233Z,93.30
2018-01-04T02:58:04.693Z,93.50
2018-01-04T03:00:32.134Z,93.60
2018-01-04T03:02:59.569Z,93.90
2018-01-04T03:05:27.035Z,94.00
2018-01-04T03:07:54.463Z,94.10
2018-01-04T03:10:22.679Z,94.40
2018-01-04T03:12:50.120Z,94.30
2018-01-04T03:15:17.562Z,94.60
2018-01-04T03:17:45.013Z,94.80
2018-01-04T03:20:12.449Z,94.90
2018-01-04T03:22:45.601Z,95.10
2018-01-04T03:25:18.732Z,95.20
2018-01-04T03:28:01.865Z,95.30
2018-01-04T03:30:34.900Z,95.40
2018-01-04T03:33:08.313Z,95.40
2018-01-04T03:35:41.461Z,95.50
2018-01-04T03:38:14.651Z,95.50
2018-01-04T03:40:47.657Z,95.60
2018-01-04T03:43:20.685Z,95.60
2018-01-04T03:45:53.828Z,95.60
2018-01-04T03:48:27.202Z,95.60
2018-01-04T03:51:00.237Z,95.40
2018-01-04T03:53:33.420Z,95.50
2018-01-04T03:56:06.606Z,95.50
2018-01-04T03:58:39.623Z,95.30
2018-01-04T04:01:12.766Z,95.20
2018-01-04T04:03:40.229Z,95.20
2018-01-04T04:06:13.365Z,95.10
2018-01-04T04:08:44.609Z,95.00
2018-01-04T04:11:12.069Z,94.90
2018-01-04T04:13:39.521Z,94.90
2018-01-04T04:16:06.971Z,94.80
2018-01-04T04:18:34.406Z,94.80
2018-01-04T04:21:01.861Z,94.70
2018-01-04T04:23:29.306Z,95.00
2018-01-04T04:25:56.747Z,94.50
2018-01-04T04:28:24.197Z,94.40
2018-01-04T04:30:51.641Z,94.30
2018-01-04T04:33:19.293Z,94.20
2018-01-04T04:35:46.754Z,94.10
2018-01-04T04:38:14.189Z,94.00
2018-01-04T04:40:41.633Z,94.20
2018-01-04T04:43:09.839Z,93.70
2018-01-04T04:45:37.306Z,93.70
2018-01-04T04:48:04.743Z,93.60
2018-01-04T04:50:32.178Z,93.60
2018-01-04T04:52:59.627Z,93.60
2018-01-04T04:55:27.065Z,93.60
2018-01-04T04:57:54.513Z,93.70
2018-01-04T05:00:21.982Z,93.70
2018-01-04T05:02:49.431Z,93.70
2018-01-04T05:05:16.892Z,93.80
2018-01-04T05:07:44.344Z,93.90
2018-01-04T05:10:11.799Z,93.90
2018-01-04T05:12:39.228Z,93.90
2018-01-04T05:15:06.660Z,93.90
2018-01-04T05:17:34.217Z,93.90
2018-01-04T05:20:01.664Z,93.90
2018-01-04T05:22:29.129Z,93.90
2018-01-04T05:24:56.566Z,93.90
2018-01-04T05:27:24.001Z,93.80
2018-01-04T05:29:52.213Z,93.90
2018-01-04T05:32:19.652Z,93.80
2018-01-04T05:34:47.110Z,93.90
2018-01-04T05:37:14.579Z,94.00
2018-01-04T05:42:14.812Z,94.10
2018-01-04T05:44:42.275Z,94.10
2018-01-04T05:47:09.752Z,94.20
2018-01-04T05:49:37.808Z,94.20
2018-01-04T05:52:05.251Z,94.30
2018-01-04T05:54:32.701Z,94.40
2018-01-04T05:57:00.141Z,94.40
2018-01-04T05:59:27.598Z,94.50
2018-01-04T06:01:55.037Z,94.60
2018-01-04T06:04:22.504Z,94.70
2018-01-04T06:06:49.940Z,94.70
2018-01-04T06:09:17.382Z,94.70
2018-01-04T06:11:44.845Z,94.60
2018-01-04T06:14:12.282Z,94.60
2018-01-04T06:16:39.729Z,94.60
2018-01-04T06:19:07.185Z,94.50
2018-01-04T06:21:34.626Z,94.50
2018-01-04T06:24:02.111Z,94.50
2018-01-04T06:26:29.553Z,94.50
2018-01-04T06:28:56.985Z,94.50
2018-01-04T06:31:24.439Z,94.50
2018-01-04T06:33:51.900Z,94.50
2018-01-04T06:36:19.533Z,94.50
2018-01-04T06:38:46.978Z,94.50
2018-01-04T06:41:14.446Z,94.50
2018-01-04T06:43:41.850Z,94.50
2018-01-04T06:46:09.297Z,94.50
2018-01-04T06:48:36.744Z,94.50
2018-01-04T06:51:04.188Z,94.60
2018-01-04T06:53:31.625Z,94.70
2018-01-04T06:55:59.192Z,94.70
2018-01-04T06:58:26.625Z,94.70
2018-01-04T07:00:54.062Z,94.60
2018-01-04T07:03:21.510Z,94.60
2018-01-04T07:05:48.971Z,94.50
2018-01-04T07:08:16.424Z,94.50
2018-01-04T07:10:43.883Z,94.50
2018-01-04T07:13:11.316Z,94.50
2018-01-04T07:15:38.821Z,94.50
2018-01-04T07:18:06.260Z,94.30
2018-01-04T07:20:33.705Z,94.30
2018-01-04T07:23:01.310Z,94.20
2018-01-04T07:25:28.757Z,94.10
2018-01-04T07:27:56.201Z,94.00
2018-01-04T07:30:23.645Z,93.90
2018-01-04T07:32:51.256Z,93.80
2018-01-04T07:35:18.696Z,93.80
2018-01-04T07:37:46.141Z,93.80
2018-01-04T07:40:13.592Z,93.90
2018-01-04T07:42:41.047Z,93.90
2018-01-04T07:45:08.505Z,94.00
2018-01-04T07:47:35.951Z,94.10
2018-01-04T07:50:03.386Z,94.70
2018-01-04T07:52:30.837Z,94.50
2018-01-04T07:54:58.385Z,94.70
2018-01-04T07:57:26.070Z,94.80
2018-01-04T07:59:53.502Z,94.90
2018-01-04T08:02:20.936Z,94.90
2018-01-04T08:04:48.390Z,95.00
2018-01-04T08:07:15.833Z,95.00
2018-01-04T08:09:43.282Z,95.00
2018-01-04T08:12:10.715Z,95.00
2018-01-04T08:14:38.153Z,95.00
2018-01-04T08:17:05.604Z,95.00
2018-01-04T08:19:37.509Z,94.90
2018-01-04T08:22:04.942Z,94.90
2018-01-04T08:24:32.402Z,94.90
2018-01-04T08:26:59.833Z,94.90
2018-01-04T08:29:27.287Z,94.90
2018-01-04T08:31:54.824Z,95.00
2018-01-04T08:34:22.298Z,95.10
2018-01-04T08:36:49.741Z,95.40
2018-01-04T08:39:17.166Z,95.70
2018-01-04T08:41:44.607Z,96.10
2018-01-04T08:44:12.064Z,96.40
2018-01-04T08:46:39.531Z,96.80
2018-01-04T08:49:06.957Z,97.20
2018-01-04T08:51:34.398Z,97.70
2018-01-04T08:54:01.851Z,98.00
2018-01-04T08:56:29.288Z,98.40
2018-01-04T08:58:57.505Z,99.20
2018-01-04T09:01:24.944Z,99.20
2018-01-04T09:03:52.368Z,99.40
2018-01-04T09:06:19.824Z,99.80
2018-01-04T09:08:47.311Z,99.90
2018-01-04T09:11:14.749Z,99.90
2018-01-04T09:13:42.196Z,99.90
2018-01-04T09:16:09.638Z,99.90
2018-01-04T09:18:37.082Z,99.90
2018-01-04T09:21:04.527Z,99.90
2018-01-04T09:23:31.968Z,99.90
2018-01-04T09:25:59.412Z,99.90
2018-01-04T09:28:26.857Z,99.90
2018-01-04T09:30:54.307Z,99.90
2018-01-04T09:33:21.889Z,99.90
2018-01-04T09:35:49.325Z,99.90
2018-01-04T09:38:16.782Z,99.90
2018-01-04T09:40:44.346Z,99.90
2018-01-04T09:43:11.794Z,99.90
2018-01-04T09:45:39.224Z,99.90
2018-01-04T09:48:06.665Z,99.90
2018-01-04T09:50:34.124Z,99.90
2018-01-04T09:53:01.557Z,99.90
2018-01-04T09:55:29.014Z,99.90
2018-01-04T09:57:56.452Z,99.90
2018-01-04T10:00:23.881Z,99.90
2018-01-04T10:02:52.090Z,99.90
2018-01-04T10:05:19.525Z,99.90
2018-01-04T10:07:46.973Z,99.90
2018-01-04T10:10:14.425Z,99.90
2018-01-04T10:12:41.890Z,99.90
2018-01-04T10:15:09.340Z,99.90
2018-01-04T10:17:36.812Z,99.90
2018-01-04T10:20:04.217Z,99.90
2018-01-04T10:22:31.664Z,99.90
2018-01-04T10:24:59.097Z,99.90
2018-01-04T10:27:26.542Z,99.90
2018-01-04T10:29:53.990Z,99.90
2018-01-04T10:32:21.433Z,99.90
2018-01-04T10:34:48.890Z,99.90
2018-01-04T10:37:16.322Z,99.90
2018-01-04T10:39:43.772Z,99.90
2018-01-04T10:42:11.215Z,99.90
2018-01-04T10:44:38.683Z,99.90
2018-01-04T10:47:06.133Z,99.90
2018-01-04T10:49:34.252Z,99.90
2018-01-04T10:52:01.628Z,99.90
2018-01-04T10:54:30.884Z,99.90
2018-01-04T10:56:58.335Z,99.90
2018-01-04T10:59:25.791Z,99.90
2018-01-04T11:01:53.220Z,99.90
2018-01-04T11:04:21.030Z,99.90
2018-01-04T11:06:48.473Z,99.90
2018-01-04T11:09:15.925Z,99.90
2018-01-04T11:11:43.349Z,99.90
2018-01-04T11:14:11.575Z,99.90
2018-01-04T11:16:39.020Z,99.90
2018-01-04T11:19:06.454Z,99.90
2018-01-04T11:21:33.915Z,99.90
2018-01-04T11:24:02.132Z,99.90
2018-01-04T11:26:29.573Z,99.90
2018-01-04T11:28:57.031Z,99.90
2018-01-04T11:31:24.478Z,99.90
2018-01-04T11:33:52.906Z,99.90
2018-01-04T11:36:20.331Z,99.90
2018-01-04T11:38:48.531Z,99.90
2018-01-04T11:41:15.965Z,99.90
2018-01-04T11:43:43.403Z,99.90
2018-01-04T11:46:10.869Z,99.90
2018-01-04T11:48:38.318Z,99.90
2018-01-04T11:51:05.755Z,99.90
2018-01-04T11:53:33.213Z,99.90
2018-01-04T11:56:04.281Z,99.90
2018-01-04T11:58:32.049Z,99.90
2018-01-04T12:00:59.488Z,99.90
2018-01-04T12:03:26.929Z,99.90
2018-01-04T12:05:54.383Z,99.90
2018-01-04T12:08:22.668Z,99.90
2018-01-04T12:10:50.126Z,99.90
2018-01-04T12:13:17.565Z,99.90
2018-01-04T12:15:45.008Z,99.90
2018-01-04T12:18:12.441Z,99.90
2018-01-04T12:20:39.876Z,99.90
2018-01-04T12:23:07.332Z,99.90
2018-01-04T12:25:34.763Z,99.90
2018-01-04T12:28:02.209Z,99.90
2018-01-04T12:30:29.664Z,99.90
2018-01-04T12:32:57.108Z,99.90
2018-01-04T12:35:24.560Z,99.90
2018-01-04T12:37:52.051Z,99.90
2018-01-04T12:40:19.424Z,99.90
2018-01-04T12:42:46.880Z,99.90
2018-01-04T12:45:14.308Z,99.90
2018-01-04T12:47:41.752Z,99.90
2018-01-04T12:50:09.184Z,99.90
2018-01-04T12:52:36.616Z,99.90
2018-01-04T12:55:04.085Z,99.90
2018-01-04T12:57:31.512Z,99.90
2018-01-04T12:59:58.967Z,99.90
2018-01-04T13:02:26.401Z,99.90
2018-01-04T13:04:53.845Z,99.90
2018-01-04T13:07:21.299Z,99.90
2018-01-04T13:09:48.743Z,99.90
2018-01-04T13:12:16.212Z,99.90
2018-01-04T13:14:43.653Z,99.90
2018-01-04T13:17:11.086Z,99.90
2018-01-04T13:19:41.368Z,99.90
2018-01-04T13:22:08.797Z,99.90
2018-01-04T13:24:36.256Z,99.90
2018-01-04T13:27:03.716Z,99.90
2018-01-04T13:29:31.275Z,99.90
2018-01-04T13:32:03.580Z,99.90
2018-01-04T13:34:31.047Z,99.90
2018-01-04T13:36:58.486Z,99.90
2018-01-04T13:39:33.199Z,99.90
2018-01-04T13:42:00.649Z,99.90
2018-01-04T13:44:42.937Z,99.90
2018-01-04T13:47:10.401Z,99.90
2018-01-04T13:49:37.843Z,99.90
2018-01-04T13:52:05.269Z,99.90
2018-01-04T13:54:32.717Z,99.90
2018-01-04T13:57:00.716Z,99.90
2018-01-04T13:59:28.174Z,99.90
2018-01-04T14:01:55.611Z,99.90
2018-01-04T14:04:23.074Z,99.90
2018-01-04T14:06:50.519Z,99.90
2018-01-04T14:09:17.959Z,99.90
2018-01-04T14:11:45.713Z,99.90
2018-01-04T14:14:13.162Z,99.90
2018-01-04T14:16:40.603Z,99.90
2018-01-04T14:19:08.237Z,99.90
2018-01-04T14:21:35.678Z,99.90
2018-01-04T14:24:03.248Z,99.90
2018-01-04T14:26:30.710Z,99.90
2018-01-04T14:28:58.145Z,99.90
2018-01-04T14:31:25.592Z,99.90
2018-01-04T14:33:53.188Z,99.90
2018-01-04T14:36:21.404Z,99.90
2018-01-04T14:38:48.833Z,99.90
2018-01-04T14:41:17.361Z,99.90
2018-01-04T14:43:44.813Z,99.90
2018-01-04T14:46:12.250Z,99.90
2018-01-04T14:48:40.178Z,99.90
2018-01-04T14:51:07.622Z,99.90
2018-01-04T14:53:35.088Z,99.90
2018-01-04T14:56:02.586Z,99.90
2018-01-04T14:58:30.025Z,99.90
2018-01-04T15:00:57.481Z,99.90
2018-01-04T15:03:24.922Z,99.90
2018-01-04T15:05:52.347Z,99.90
2018-01-04T15:08:19.814Z,99.90
2018-01-04T15:10:47.260Z,99.90
2018-01-04T15:13:14.704Z,99.90
2018-01-04T15:15:42.160Z,99.90
2018-01-04T15:18:09.605Z,99.90
2018-01-04T15:20:37.054Z,99.90
2018-01-04T15:23:04.486Z,99.90
2018-01-04T15:25:31.935Z,99.90
2018-01-04T15:27:59.374Z,99.90
2018-01-04T15:30:26.802Z,99.90
2018-01-04T15:32:54.406Z,99.90
2018-01-04T15:35:21.829Z,99.90
2018-01-04T15:37:49.280Z,99.90
2018-01-04T15:40:16.735Z,99.90
2018-01-04T15:42:44.161Z,99.90
2018-01-04T15:45:11.797Z,99.90
2018-01-04T15:47:39.233Z,99.90
2018-01-04T15:50:07.123Z,99.90
2018-01-04T15:52:34.559Z,99.90
2018-01-04T15:55:02.021Z,99.90
2018-01-04T15:57:29.472Z,99.90
2018-01-04T15:59:56.912Z,99.90
2018-01-04T16:02:24.724Z,99.90
2018-01-04T16:04:52.167Z,99.90
2018-01-04T16:07:19.604Z,99.90
2018-01-04T16:09:47.074Z,99.90
2018-01-04T16:12:14.529Z,99.90
2018-01-04T16:14:42.054Z,99.90
2018-01-04T16:17:09.509Z,99.90
2018-01-04T16:19:36.958Z,99.90
2018-01-04T16:22:04.827Z,99.90
2018-01-04T16:24:32.911Z,99.90
2018-01-04T16:27:01.167Z,99.90
2018-01-04T16:29:28.595Z,99.90
2018-01-04T16:31:56.048Z,99.90
2018-01-04T16:34:23.528Z,99.90
2018-01-04T16:36:50.977Z,99.90
2018-01-04T16:39:18.418Z,99.90
2018-01-04T16:41:45.876Z,99.90
2018-01-04T16:44:13.313Z,99.90
2018-01-04T16:46:41.395Z,99.90
2018-01-04T16:51:42.741Z,99.90
2018-01-04T16:54:10.207Z,99.90
2018-01-04T16:56:37.862Z,99.90
2018-01-04T16:59:05.309Z,99.90
2018-01-04T17:01:32.748Z,99.90
2018-01-04T17:04:00.210Z,99.90
2018-01-04T17:06:27.976Z,99.90
2018-01-04T17:08:55.435Z,99.90
2018-01-04T17:11:24.388Z,99.90
2018-01-04T17:13:51.860Z,99.90
2018-01-04T17:16:19.616Z,99.90
2018-01-04T17:18:47.076Z,99.90
2018-01-04T17:21:14.513Z,99.90
2018-01-04T17:23:41.983Z,99.90
2018-01-04T17:26:09.447Z,99.90
2018-01-04T17:28:36.903Z,99.90
2018-01-04T17:31:04.340Z,99.90
2018-01-04T17:33:31.792Z,99.90
2018-01-04T17:35:59.254Z,99.90
2018-01-04T17:38:26.698Z,99.90
2018-01-04T17:40:54.428Z,99.90
2018-01-04T17:43:22.230Z,99.90
2018-01-04T17:45:49.665Z,99.90
2018-01-04T17:48:17.109Z,99.90
2018-01-04T17:50:44.551Z,99.90
2018-01-04T17:53:12.089Z,99.90
2018-01-04T17:55:39.537Z,99.90
2018-01-04T17:58:07.746Z,99.90
2018-01-04T18:00:35.189Z,99.90
2018-01-04T18:03:02.637Z,99.90
2018-01-04T18:05:30.105Z,99.90
2018-01-04T18:07:57.560Z,99.90
2018-01-04T18:10:25.005Z,99.90
2018-01-04T18:12:52.449Z,99.90
2018-01-04T18:15:19.900Z,99.90
2018-01-04T18:17:47.361Z,99.90
2018-01-04T18:20:14.816Z,99.90
2018-01-04T18:22:42.263Z,99.90
2018-01-04T18:25:10.477Z,99.90
2018-01-04T18:27:37.915Z,99.90
2018-01-04T18:30:05.373Z,99.90
2018-01-04T18:32:32.816Z,99.90
2018-01-04T18:35:01.748Z,99.90
2018-01-04T18:37:29.193Z,99.90
2018-01-04T18:39:56.628Z,99.90
2018-01-04T18:42:24.391Z,99.90
2018-01-04T18:44:51.832Z,99.90
2018-01-04T18:47:19.584Z,99.90
2018-01-04T18:49:47.032Z,99.90
2018-01-04T18:52:14.460Z,99.90
2018-01-04T18:54:41.922Z,99.90
2018-01-04T18:57:10.132Z,99.90
2018-01-04T18:59:37.829Z,99.90
2018-01-04T19:02:05.313Z,99.90
2018-01-04T19:04:32.753Z,99.90
2018-01-04T19:07:00.196Z,99.90
2018-01-04T19:09:28.236Z,99.90
2018-01-04T19:11:55.664Z,99.90
2018-01-04T19:14:23.121Z,99.90
2018-01-04T19:16:50.553Z,99.90
2018-01-04T19:19:17.990Z,99.90
2018-01-04T19:21:47.069Z,99.90
2018-01-04T19:24:14.531Z,99.90
2018-01-04T19:26:42.026Z,99.90
2018-01-04T19:29:09.451Z,99.90
2018-01-04T19:31:36.909Z,99.90
2018-01-04T19:34:04.353Z,99.20
2018-01-04T19:36:31.797Z,98.60
2018-01-04T19:38:59.669Z,97.60
2018-01-04T19:41:27.101Z,97.30
2018-01-04T19:43:54.712Z,96.20
2018-01-04T19:46:22.153Z,96.60
2018-01-04T19:48:49.589Z,96.10
2018-01-04T19:51:17.494Z,95.70
2018-01-04T19:53:44.969Z,95.60
2018-01-04T19:56:12.405Z,95.70
2018-01-04T19:58:39.864Z,95.60
2018-01-04T20:01:07.300Z,95.50
2018-01-04T20:03:34.761Z,95.30
2018-01-04T20:06:02.199Z,95.30
2018-01-04T20:08:29.637Z,95.00
2018-01-04T20:10:57.163Z,94.70
2018-01-04T20:13:24.603Z,94.80
2018-01-04T20:15:52.817Z,92.80
2018-01-04T20:18:20.261Z,92.80
2018-01-04T20:20:47.701Z,90.80
2018-01-04T20:23:15.152Z,90.30
2018-01-04T20:25:42.608Z,84.00
2018-01-04T20:28:10.058Z,84.40
2018-01-04T20:30:37.493Z,81.50
2018-01-04T20:33:04.961Z,81.40
2018-01-04T20:35:32.412Z,78.70
2018-01-04T20:37:59.856Z,78.00
2018-01-04T20:40:27.317Z,78.70
2018-01-04T20:42:54.772Z,80.00
2018-01-04T20:45:22.205Z,81.20
2018-01-04T20:47:49.674Z,81.60
2018-01-04T20:50:17.115Z,81.30
2018-01-04T20:52:44.561Z,80.00
2018-01-04T20:55:12.018Z,79.70
2018-01-04T20:57:39.449Z,80.70
2018-01-04T21:00:06.908Z,80.40
2018-01-04T21:02:34.350Z,80.00
2018-01-04T21:05:02.564Z,80.90
2018-01-04T21:07:29.995Z,80.80
2018-01-04T21:09:57.425Z,81.80
2018-01-04T21:12:24.876Z,82.50
2018-01-04T21:14:52.314Z,82.20
2018-01-04T21:17:19.769Z,80.60
2018-01-04T21:19:47.204Z,81.50
2018-01-04T21:22:14.659Z,80.60
2018-01-04T21:24:42.310Z,78.50
2018-01-04T21:27:10.509Z,77.80
2018-01-04T21:29:37.971Z,77.70
2018-01-04T21:32:05.400Z,76.10
2018-01-04T21:34:32.860Z,75.60
2018-01-04T21:37:00.329Z,74.10
2018-01-04T21:39:29.726Z,72.40
2018-01-04T21:41:57.167Z,72.40
2018-01-04T21:44:24.615Z,72.20
2018-01-04T21:46:52.059Z,72.70
2018-01-04T21:49:19.516Z,73.10
2018-01-04T21:51:46.950Z,73.90
2018-01-04T21:54:14.401Z,74.10
2018-01-04T21:56:42.601Z,73.20
2018-01-04T21:59:10.038Z,73.10
2018-01-04T22:01:37.501Z,70.70
2018-01-04T22:04:04.955Z,70.90
2018-01-04T22:06:32.413Z,70.20
2018-01-04T22:08:59.849Z,70.80
2018-01-04T22:11:27.295Z,71.30
2018-01-04T22:13:55.605Z,70.80
2018-01-04T22:16:23.052Z,70.80
2018-01-04T22:18:50.489Z,71.40
2018-01-04T22:21:17.944Z,71.30
2018-01-04T22:23:45.405Z,70.90
2018-01-04T22:26:12.860Z,71.50
2018-01-04T22:28:40.304Z,70.20
2018-01-04T22:31:07.741Z,70.30
2018-01-04T22:33:35.190Z,70.40
2018-01-04T22:36:02.644Z,70.10
2018-01-04T22:38:30.085Z,69.80
2018-01-04T22:40:57.513Z,70.00
2018-01-04T22:43:24.945Z,69.30
2018-01-04T22:45:52.398Z,69.80
2018-01-04T22:48:19.828Z,69.40
2018-01-04T22:50:47.290Z,70.20
2018-01-04T22:53:14.733Z,69.60
2018-01-04T22:55:42.188Z,70.00
2018-01-04T22:58:09.635Z,70.10
2018-01-04T23:00:37.085Z,68.80
2018-01-04T23:03:04.533Z,68.60
2018-01-04T23:05:31.965Z,68.70
2018-01-04T23:07:59.404Z,69.70
2018-01-04T23:10:26.856Z,69.30
2018-01-04T23:12:54.290Z,69.60
2018-01-04T23:15:22.614Z,69.30
2018-01-04T23:17:50.033Z,69.00
2018-01-04T23:20:17.473Z,68.50
2018-01-04T23:22:44.920Z,68.80
2018-01-04T23:25:12.373Z,68.30
2018-01-04T23:27:39.832Z,68.90
2018-01-04T23:30:07.279Z,69.40
2018-01-04T23:32:34.703Z,69.90
2018-01-04T23:35:02.430Z,69.50
2018-01-04T23:37:29.874Z,69.90
2018-01-04T23:39:57.325Z,70.10
2018-01-04T23:42:25.673Z,70.20
2018-01-04T23:44:53.117Z,70.70
2018-01-04T23:47:20.749Z,70.50
2018-01-04T23:49:48.200Z,70.40
2018-01-04T23:52:15.645Z,71.90
2018-01-04T23:54:43.083Z,71.70
2018-01-04T23:57:10.534Z,72.40
2018-01-04T23:59:37.971Z,73.50
